createdAt,value
2018-10-16T00:00:28.184Z,95.79
2018-10-16T00:01:28.162Z,94.65
2018-10-16T00:02:28.138Z,95.03
2018-10-16T00:03:28.114Z,95.03
2018-10-16T00:04:28.092Z,95.65
2018-10-16T00:05:28.069Z,94.79
2018-10-16T00:06:28.046Z,94.60
2018-10-16T00:07:28.023Z,94.37
2018-10-16T00:08:27.999Z,95.03
2018-10-16T00:09:27.977Z,95.27
2018-10-16T00:10:27.954Z,94.60
2018-10-16T00:11:27.930Z,94.65
2018-10-16T00:12:27.907Z,95.65
2018-10-16T00:13:27.883Z,95.36
2018-10-16T00:14:27.862Z,95.27
2018-10-16T00:15:27.837Z,94.51
2018-10-16T00:16:27.815Z,95.17
2018-10-16T00:17:27.791Z,94.79
2018-10-16T00:18:27.773Z,93.55
2018-10-16T00:19:27.746Z,93.27
2018-10-16T00:20:27.721Z,92.89
2018-10-16T00:21:27.699Z,91.36
2018-10-16T00:22:27.675Z,93.08
2018-10-16T00:23:27.653Z,95.17
2018-10-16T00:24:27.632Z,96.03
2018-10-16T00:25:27.607Z,95.65
2018-10-16T00:26:27.584Z,94.98
2018-10-16T00:27:27.562Z,93.74
2018-10-16T00:28:27.537Z,93.55
2018-10-16T00:29:27.515Z,91.55
2018-10-16T00:30:27.491Z,91.36
2018-10-16T00:31:27.468Z,90.98
2018-10-16T00:32:27.482Z,90.12
2018-10-16T00:33:27.423Z,89.94
2018-10-16T00:34:27.399Z,89.32
2018-10-16T00:35:27.375Z,89.46
2018-10-16T00:36:27.351Z,88.37
2018-10-16T00:37:28.829Z,88.84
2018-10-16T00:38:27.304Z,89.51
2018-10-16T00:39:27.281Z,89.89
2018-10-16T00:40:27.257Z,92.08
2018-10-16T00:41:27.236Z,93.32
2018-10-16T00:42:27.212Z,92.65
2018-10-16T00:43:27.187Z,91.41
2018-10-16T00:44:27.165Z,90.46
2018-10-16T00:45:27.144Z,89.89
2018-10-16T00:46:27.119Z,88.08
2018-10-16T00:47:27.094Z,87.98
2018-10-16T00:48:27.076Z,86.65
2018-10-16T00:49:27.051Z,86.46
2018-10-16T00:50:27.028Z,85.89
2018-10-16T00:51:27.001Z,85.32
2018-10-16T00:52:26.977Z,84.75
2018-10-16T00:53:26.953Z,83.89
2018-10-16T00:54:27.181Z,84.17
2018-10-16T00:55:26.907Z,84.27
2018-10-16T00:56:26.884Z,85.70
2018-10-16T00:57:26.860Z,86.36
2018-10-16T00:58:26.838Z,85.60
2018-10-16T00:59:26.820Z,85.32
2018-10-16T01:00:26.793Z,84.94
2018-10-16T01:01:26.767Z,84.56
2018-10-16T01:02:26.745Z,85.22
2018-10-16T01:03:26.721Z,85.03
2018-10-16T01:04:26.699Z,85.89
2018-10-16T01:05:26.671Z,85.89
2018-10-16T01:06:26.649Z,87.32
2018-10-16T01:07:26.625Z,88.46
2018-10-16T01:08:26.605Z,89.03
2018-10-16T01:09:26.579Z,89.13
2018-10-16T01:10:26.556Z,89.89
2018-10-16T01:11:28.033Z,91.22
2018-10-16T01:12:26.508Z,91.22
2018-10-16T01:13:26.484Z,91.79
2018-10-16T01:14:26.462Z,92.08
2018-10-16T01:15:26.438Z,91.79
2018-10-16T01:16:26.414Z,91.89
2018-10-16T01:17:29.644Z,91.13
2018-10-16T01:18:26.368Z,91.79
2018-10-16T01:19:26.344Z,91.89
2018-10-16T01:20:26.323Z,91.03
2018-10-16T01:21:26.297Z,90.84
2018-10-16T01:22:26.274Z,90.75
2018-10-16T01:23:26.499Z,90.84
2018-10-16T01:24:26.226Z,89.22
2018-10-16T01:25:26.202Z,89.70
2018-10-16T01:26:26.182Z,90.94
2018-10-16T01:27:26.156Z,92.41
2018-10-16T01:28:26.131Z,91.37
2018-10-16T01:29:26.108Z,90.32
2018-10-16T01:30:26.085Z,90.42
2018-10-16T01:31:26.061Z,89.47
2018-10-16T01:32:26.038Z,88.32
2018-10-16T01:33:26.014Z,88.13
2018-10-16T01:34:26.743Z,87.65
2018-10-16T01:35:25.968Z,86.70
2018-10-16T01:36:25.944Z,86.22
2018-10-16T01:37:25.922Z,85.99
2018-10-16T01:38:25.898Z,86.70
2018-10-16T01:39:25.873Z,86.51
2018-10-16T01:40:25.849Z,86.18
2018-10-16T01:41:25.826Z,85.28
2018-10-16T01:42:25.804Z,84.99
2018-10-16T01:43:25.779Z,85.28
2018-10-16T01:44:25.756Z,85.28
2018-10-16T01:45:25.732Z,83.56
2018-10-16T01:46:25.709Z,82.14
2018-10-16T01:47:25.683Z,79.47
2018-10-16T01:48:25.661Z,79.85
2018-10-16T01:49:25.638Z,80.42
2018-10-16T01:50:25.614Z,79.57
2018-10-16T01:51:25.591Z,79.47
2018-10-16T01:52:25.566Z,80.61
2018-10-16T01:53:25.543Z,80.80
2018-10-16T01:54:25.521Z,81.95
2018-10-16T01:55:26.247Z,82.51
2018-10-16T01:56:25.472Z,82.04
2018-10-16T01:57:25.448Z,80.80
2018-10-16T01:58:25.425Z,82.42
2018-10-16T01:59:25.402Z,84.89
2018-10-16T02:00:25.378Z,84.04
2018-10-16T02:01:25.354Z,82.14
2018-10-16T02:02:25.383Z,81.47
2018-10-16T02:03:25.306Z,82.99
2018-10-16T02:04:25.282Z,82.23
2018-10-16T02:05:25.258Z,80.99
2018-10-16T02:06:25.235Z,79.28
2018-10-16T02:07:25.211Z,79.19
2018-10-16T02:08:25.187Z,78.80
2018-10-16T02:09:25.164Z,78.90
2018-10-16T02:10:25.140Z,80.42
2018-10-16T02:11:25.122Z,82.04
2018-10-16T02:12:25.098Z,82.42
2018-10-16T02:13:25.069Z,79.75
2018-10-16T02:14:25.045Z,79.94
2018-10-16T02:15:25.020Z,80.42
2018-10-16T02:16:24.995Z,80.71
2018-10-16T02:17:24.972Z,80.33
2018-10-16T02:18:24.949Z,80.52
2018-10-16T02:19:24.925Z,81.47
2018-10-16T02:20:24.901Z,81.09
2018-10-16T02:21:24.880Z,80.80
2018-10-16T02:22:25.105Z,80.36
2018-10-16T02:23:24.829Z,80.65
2018-10-16T02:24:24.806Z,82.27
2018-10-16T02:25:24.785Z,82.61
2018-10-16T02:26:24.759Z,81.60
2018-10-16T02:27:24.734Z,81.32
2018-10-16T02:28:24.710Z,82.93
2018-10-16T02:29:24.686Z,83.47
2018-10-16T02:30:24.665Z,82.90
2018-10-16T02:31:24.638Z,82.42
2018-10-16T02:32:24.615Z,81.47
2018-10-16T02:33:24.591Z,80.52
2018-10-16T02:34:24.568Z,80.42
2018-10-16T02:35:24.542Z,79.38
2018-10-16T02:36:24.518Z,78.99
2018-10-16T02:37:24.493Z,78.04
2018-10-16T02:38:24.470Z,78.33
2018-10-16T02:39:24.447Z,79.09
2018-10-16T02:40:24.423Z,79.38
2018-10-16T02:41:24.400Z,79.19
2018-10-16T02:42:24.375Z,79.38
2018-10-16T02:43:24.350Z,80.52
2018-10-16T02:44:24.330Z,80.33
2018-10-16T02:45:24.303Z,83.09
2018-10-16T02:46:24.280Z,82.09
2018-10-16T02:47:24.255Z,80.13
2018-10-16T02:48:24.232Z,80.33
2018-10-16T02:49:24.209Z,81.90
2018-10-16T02:50:24.184Z,80.86
2018-10-16T02:51:24.160Z,80.47
2018-10-16T02:52:24.136Z,80.19
2018-10-16T02:53:24.112Z,80.47
2018-10-16T02:54:24.091Z,79.43
2018-10-16T02:55:24.065Z,78.10
2018-10-16T02:56:24.041Z,78.38
2018-10-16T02:57:24.017Z,79.14
2018-10-16T02:58:23.994Z,79.91
2018-10-16T02:59:23.970Z,82.00
2018-10-16T03:00:23.945Z,82.00
2018-10-16T03:01:23.922Z,82.09
2018-10-16T03:02:23.898Z,80.29
2018-10-16T03:03:23.874Z,79.62
2018-10-16T03:04:23.852Z,79.52
2018-10-16T03:05:23.826Z,80.47
2018-10-16T03:06:23.804Z,80.19
2018-10-16T03:07:23.782Z,80.76
2018-10-16T03:08:23.755Z,81.24
2018-10-16T03:09:23.732Z,81.52
2018-10-16T03:10:24.459Z,82.00
2018-10-16T03:11:23.683Z,81.62
2018-10-16T03:12:23.659Z,81.05
2018-10-16T03:13:23.636Z,81.33
2018-10-16T03:14:23.613Z,82.76
2018-10-16T03:15:23.587Z,82.00
2018-10-16T03:16:23.563Z,83.52
2018-10-16T03:17:23.541Z,86.18
2018-10-16T03:19:23.492Z,86.47
2018-10-16T03:20:23.523Z,85.71
2018-10-16T03:21:23.443Z,84.76
2018-10-16T03:22:23.423Z,84.09
2018-10-16T03:23:23.395Z,84.66
2018-10-16T03:24:23.372Z,84.47
2018-10-16T03:25:23.347Z,84.66
2018-10-16T03:26:23.323Z,86.18
2018-10-16T03:27:23.300Z,86.38
2018-10-16T03:28:23.274Z,87.32
2018-10-16T03:29:23.253Z,88.37
2018-10-16T03:30:23.229Z,88.37
2018-10-16T03:31:23.202Z,88.09
2018-10-16T03:32:23.179Z,87.23
2018-10-16T03:33:23.161Z,87.71
2018-10-16T03:34:23.131Z,87.13
2018-10-16T03:35:23.106Z,88.37
2018-10-16T03:36:23.087Z,88.85
2018-10-16T03:37:23.812Z,88.94
2018-10-16T03:38:23.034Z,89.89
2018-10-16T03:39:23.014Z,89.51
2018-10-16T03:40:22.986Z,90.08
2018-10-16T03:41:22.962Z,89.04
2018-10-16T03:42:22.938Z,88.37
2018-10-16T03:43:22.912Z,88.75
2018-10-16T03:44:22.889Z,88.09
2018-10-16T03:45:22.865Z,87.23
2018-10-16T03:46:22.873Z,87.13
2018-10-16T03:47:22.818Z,86.94
2018-10-16T03:48:22.793Z,88.09
2018-10-16T03:49:22.769Z,88.28
2018-10-16T03:50:22.747Z,89.14
2018-10-16T03:51:22.720Z,89.04
2018-10-16T03:52:22.696Z,88.18
2018-10-16T03:53:22.674Z,88.18
2018-10-16T03:54:22.649Z,89.04
2018-10-16T03:55:22.626Z,88.28
2018-10-16T03:56:22.600Z,88.18
2018-10-16T03:57:22.671Z,87.99
2018-10-16T03:58:22.552Z,87.80
2018-10-16T03:59:22.531Z,87.13
2018-10-16T04:00:22.504Z,86.66
2018-10-16T04:01:22.484Z,85.61
2018-10-16T04:02:22.456Z,85.80
2018-10-16T04:03:22.431Z,84.76
2018-10-16T04:04:22.407Z,84.95
2018-10-16T04:05:22.385Z,84.76
2018-10-16T04:06:22.359Z,85.42
2018-10-16T04:07:22.335Z,86.09
2018-10-16T04:08:22.311Z,86.57
2018-10-16T04:09:22.291Z,86.66
2018-10-16T04:10:22.266Z,86.28
2018-10-16T04:11:22.237Z,86.85
2018-10-16T04:12:22.214Z,86.76
2018-10-16T04:13:22.190Z,87.99
2018-10-16T04:14:22.918Z,86.99
2018-10-16T04:15:22.141Z,86.42
2018-10-16T04:16:22.119Z,86.51
2018-10-16T04:17:22.095Z,87.27
2018-10-16T04:18:22.070Z,86.80
2018-10-16T04:19:22.045Z,87.56
2018-10-16T04:20:22.022Z,87.99
2018-10-16T04:21:21.998Z,86.47
2018-10-16T04:22:21.996Z,86.28
2018-10-16T04:23:21.950Z,86.28
2018-10-16T04:24:21.925Z,84.95
2018-10-16T04:25:21.902Z,83.42
2018-10-16T04:26:21.877Z,83.42
2018-10-16T04:27:21.852Z,83.33
2018-10-16T04:28:21.829Z,82.38
2018-10-16T04:29:21.849Z,82.38
2018-10-16T04:30:21.781Z,82.09
2018-10-16T04:31:21.757Z,82.28
2018-10-16T04:32:21.732Z,82.00
2018-10-16T04:33:21.709Z,81.62
2018-10-16T04:34:21.685Z,80.76
2018-10-16T04:35:21.660Z,79.72
2018-10-16T04:36:21.634Z,79.05
2018-10-16T04:37:21.611Z,79.43
2018-10-16T04:38:21.587Z,79.33
2018-10-16T04:39:21.568Z,79.24
2018-10-16T04:40:21.538Z,79.24
2018-10-16T04:41:21.521Z,79.33
2018-10-16T04:42:21.490Z,80.66
2018-10-16T04:43:21.465Z,80.38
2018-10-16T04:44:21.443Z,80.95
2018-10-16T04:45:21.417Z,80.57
2018-10-16T04:46:22.146Z,80.57
2018-10-16T04:47:21.369Z,79.24
2018-10-16T04:48:21.345Z,79.05
2018-10-16T04:49:21.321Z,78.86
2018-10-16T04:50:21.300Z,78.48
2018-10-16T04:51:21.273Z,77.62
2018-10-16T04:52:21.251Z,77.81
2018-10-16T04:53:21.229Z,77.05
2018-10-16T04:54:21.202Z,76.48
2018-10-16T04:55:21.297Z,77.53
2018-10-16T04:56:21.153Z,76.76
2018-10-16T04:57:21.130Z,76.48
2018-10-16T04:58:21.104Z,75.91
2018-10-16T04:59:21.079Z,75.72
2018-10-16T05:00:21.056Z,75.05
2018-10-16T05:01:21.034Z,74.39
2018-10-16T05:02:21.762Z,73.44
2018-10-16T05:03:20.987Z,73.63
2018-10-16T05:04:20.960Z,73.25
2018-10-16T05:05:20.937Z,73.53
2018-10-16T05:06:20.913Z,74.87
2018-10-16T05:07:20.887Z,74.87
2018-10-16T05:08:20.865Z,74.20
2018-10-16T05:09:20.840Z,73.72
2018-10-16T05:10:20.817Z,74.29
2018-10-16T05:11:20.793Z,74.39
2018-10-16T05:12:20.771Z,75.15
2018-10-16T05:13:20.889Z,75.34
2018-10-16T05:14:20.719Z,75.62
2018-10-16T05:15:20.694Z,76.20
2018-10-16T05:16:20.672Z,76.39
2018-10-16T05:17:20.647Z,76.10
2018-10-16T05:18:20.623Z,75.62
2018-10-16T05:19:20.598Z,75.34
2018-10-16T05:20:20.575Z,74.48
2018-10-16T05:21:20.550Z,74.39
2018-10-16T05:22:20.525Z,73.91
2018-10-16T05:23:20.501Z,73.82
2018-10-16T05:24:20.477Z,72.96
2018-10-16T05:25:20.452Z,72.96
2018-10-16T05:26:20.432Z,72.77
2018-10-16T05:27:20.412Z,72.67
2018-10-16T05:28:20.379Z,71.91
2018-10-16T05:29:20.355Z,71.82
2018-10-16T05:30:20.333Z,71.72
2018-10-16T05:31:20.411Z,71.44
2018-10-16T05:32:20.282Z,71.91
2018-10-16T05:33:20.259Z,73.06
2018-10-16T05:34:23.991Z,72.11
2018-10-16T05:35:20.210Z,72.30
2018-10-16T05:36:20.186Z,72.30
2018-10-16T05:37:20.163Z,72.49
2018-10-16T05:38:20.137Z,73.53
2018-10-16T05:39:20.201Z,74.58
2018-10-16T05:40:20.091Z,75.05
2018-10-16T05:41:20.066Z,76.01
2018-10-16T05:42:20.043Z,75.24
2018-10-16T05:43:20.018Z,76.01
2018-10-16T05:44:19.993Z,77.05
2018-10-16T05:45:19.969Z,77.62
2018-10-16T05:46:19.944Z,77.43
2018-10-16T05:47:19.919Z,77.91
2018-10-16T05:48:19.896Z,77.72
2018-10-16T05:49:19.871Z,76.96
2018-10-16T05:50:19.847Z,77.43
2018-10-16T05:51:19.822Z,78.57
2018-10-16T05:52:19.798Z,79.05
2018-10-16T05:53:19.805Z,77.62
2018-10-16T05:54:19.771Z,78.19
2018-10-16T05:55:19.728Z,78.10
2018-10-16T05:56:19.702Z,78.67
2018-10-16T05:57:19.679Z,77.34
2018-10-16T05:58:19.654Z,77.62
2018-10-16T05:59:19.629Z,76.96
2018-10-16T06:00:19.606Z,76.67
2018-10-16T06:01:19.585Z,75.62
2018-10-16T06:02:19.563Z,75.15
2018-10-16T06:03:19.533Z,74.20
2018-10-16T06:04:19.507Z,74.29
2018-10-16T06:05:19.485Z,74.20
2018-10-16T06:06:19.462Z,74.39
2018-10-16T06:07:19.435Z,74.29
2018-10-16T06:08:19.412Z,73.47
2018-10-16T06:09:19.389Z,73.82
2018-10-16T06:10:19.364Z,73.19
2018-10-16T06:11:19.340Z,73.15
2018-10-16T06:12:19.366Z,72.90
2018-10-16T06:13:19.291Z,72.39
2018-10-16T06:14:19.270Z,73.00
2018-10-16T06:15:19.243Z,72.62
2018-10-16T06:16:19.218Z,73.00
2018-10-16T06:17:19.197Z,72.62
2018-10-16T06:18:19.172Z,73.10
2018-10-16T06:19:19.146Z,73.10
2018-10-16T06:20:19.126Z,72.90
2018-10-16T06:21:19.100Z,72.81
2018-10-16T06:22:19.075Z,73.19
2018-10-16T06:23:19.053Z,73.47
2018-10-16T06:24:19.049Z,73.57
2018-10-16T06:25:19.011Z,73.38
2018-10-16T06:26:19.003Z,73.28
2018-10-16T06:27:21.206Z,73.66
2018-10-16T06:28:18.935Z,74.71
2018-10-16T06:29:18.907Z,75.19
2018-10-16T06:30:18.998Z,74.90
2018-10-16T06:31:18.860Z,74.80
2018-10-16T06:32:18.836Z,73.85
2018-10-16T06:33:19.647Z,74.94
2018-10-16T06:34:18.789Z,75.42
2018-10-16T06:35:18.764Z,75.23
2018-10-16T06:36:18.741Z,75.04
2018-10-16T06:37:18.721Z,75.13
2018-10-16T06:38:18.693Z,74.94
2018-10-16T06:39:18.669Z,75.04
2018-10-16T06:40:18.646Z,75.42
2018-10-16T06:41:18.743Z,75.70
2018-10-16T06:42:18.600Z,76.27
2018-10-16T06:43:18.575Z,76.08
2018-10-16T06:44:18.552Z,75.89
2018-10-16T06:45:18.555Z,75.99
2018-10-16T06:46:18.516Z,76.27
2018-10-16T06:47:18.501Z,76.21
2018-10-16T06:48:18.867Z,76.84
2018-10-16T06:49:18.433Z,76.37
2018-10-16T06:50:18.411Z,76.98
2018-10-16T06:51:18.387Z,76.98
2018-10-16T06:52:18.363Z,77.55
2018-10-16T06:53:18.385Z,77.36
2018-10-16T06:54:18.320Z,78.41
2018-10-16T06:55:18.378Z,78.50
2018-10-16T06:56:18.271Z,78.31
2018-10-16T06:57:18.246Z,78.41
2018-10-16T06:58:18.224Z,78.59
2018-10-16T06:59:18.200Z,80.26
2018-10-16T07:00:18.269Z,80.44
2018-10-16T07:01:18.155Z,80.73
2018-10-16T07:02:18.131Z,81.40
2018-10-16T07:03:18.108Z,82.83
2018-10-16T07:04:18.086Z,83.69
2018-10-16T07:05:18.063Z,84.26
2018-10-16T07:06:18.042Z,84.36
2018-10-16T07:07:18.218Z,83.31
2018-10-16T07:08:17.993Z,86.07
2018-10-16T07:09:17.969Z,84.92
2018-10-16T07:10:17.946Z,84.92
2018-10-16T07:11:17.923Z,87.69
2018-10-16T07:12:17.901Z,87.69
2018-10-16T07:13:17.878Z,87.31
2018-10-16T07:14:17.855Z,88.55
2018-10-16T07:15:17.834Z,89.31
2018-10-16T07:16:17.809Z,89.12
2018-10-16T07:17:17.786Z,89.36
2018-10-16T07:18:17.763Z,89.22
2018-10-16T07:19:17.740Z,89.26
2018-10-16T07:20:17.719Z,89.89
2018-10-16T07:21:17.791Z,90.12
2018-10-16T07:22:17.673Z,89.74
2018-10-16T07:23:17.699Z,90.12
2018-10-16T07:24:17.626Z,91.17
2018-10-16T07:25:18.354Z,92.41
2018-10-16T07:26:17.581Z,93.46
2018-10-16T07:27:17.558Z,93.46
2018-10-16T07:28:17.540Z,94.12
2018-10-16T07:29:17.517Z,93.74
2018-10-16T07:30:17.512Z,93.41
2018-10-16T07:31:17.467Z,93.51
2018-10-16T07:32:17.444Z,93.03
2018-10-16T07:33:17.421Z,93.03
2018-10-16T07:34:17.399Z,92.46
2018-10-16T07:35:17.381Z,92.50
2018-10-16T07:36:18.105Z,91.74
2018-10-16T07:37:17.329Z,92.69
2018-10-16T07:38:17.354Z,92.79
2018-10-16T07:39:17.284Z,92.88
2018-10-16T07:40:17.262Z,92.98
2018-10-16T07:41:17.246Z,93.27
2018-10-16T07:42:17.217Z,93.65
2018-10-16T07:43:17.195Z,93.27
2018-10-16T07:44:17.170Z,93.55
2018-10-16T07:45:17.155Z,94.70
2018-10-16T07:46:17.126Z,95.08
2018-10-16T07:47:17.106Z,94.51
2018-10-16T07:48:17.154Z,94.60
2018-10-16T07:49:17.056Z,94.89
2018-10-16T07:50:17.034Z,95.08
2018-10-16T07:51:17.010Z,95.37
2018-10-16T07:52:16.988Z,96.13
2018-10-16T07:53:16.968Z,95.37
2018-10-16T07:54:16.943Z,95.65
2018-10-16T07:55:16.923Z,94.98
2018-10-16T07:56:16.897Z,95.37
2018-10-16T07:57:16.889Z,94.89
2018-10-16T07:58:16.853Z,95.08
2018-10-16T07:59:16.832Z,95.17
2018-10-16T08:00:16.808Z,95.37
2018-10-16T08:01:16.785Z,96.03
2018-10-16T08:02:16.763Z,95.27
2018-10-16T08:03:16.738Z,95.22
2018-10-16T08:04:16.717Z,96.08
2018-10-16T08:05:16.696Z,95.79
2018-10-16T08:06:16.671Z,96.56
2018-10-16T08:07:16.650Z,97.13
2018-10-16T08:08:16.626Z,97.71
2018-10-16T08:09:16.606Z,96.94
2018-10-16T08:10:16.581Z,97.51
2018-10-16T08:11:16.583Z,96.84
2018-10-16T08:12:16.535Z,97.51
2018-10-16T08:13:16.517Z,97.13
2018-10-16T08:14:16.491Z,97.51
2018-10-16T08:15:16.468Z,97.03
2018-10-16T08:16:16.446Z,96.94
2018-10-16T08:17:16.573Z,97.89
2018-10-16T08:18:16.401Z,97.80
2018-10-16T08:19:16.379Z,97.51
2018-10-16T08:20:16.356Z,97.61
2018-10-16T08:21:16.334Z,98.08
2018-10-16T08:22:17.062Z,97.85
2018-10-16T08:23:16.288Z,98.27
2018-10-16T08:24:16.266Z,98.13
2018-10-16T08:25:16.246Z,97.56
2018-10-16T08:26:16.224Z,99.18
2018-10-16T08:27:16.199Z,98.99
2018-10-16T08:28:16.177Z,98.99
2018-10-16T08:29:16.156Z,98.42
2018-10-16T08:30:16.150Z,98.32
2018-10-16T08:31:16.111Z,98.32
2018-10-16T08:32:16.090Z,98.80
2018-10-16T08:33:16.066Z,98.61
2018-10-16T08:34:16.092Z,98.03
2018-10-16T08:35:16.025Z,99.28
2018-10-16T08:36:16.101Z,98.80
2018-10-16T08:37:16.037Z,98.99
2018-10-16T08:38:16.706Z,98.61
2018-10-16T08:39:15.931Z,99.28
2018-10-16T08:40:15.911Z,98.90
2018-10-16T08:41:15.888Z,99.43
2018-10-16T08:42:15.866Z,99.04
2018-10-16T08:43:15.843Z,99.14
2018-10-16T08:44:15.822Z,99.23
2018-10-16T08:45:15.799Z,99.62
2018-10-16T08:46:15.779Z,98.94
2018-10-16T08:47:15.767Z,98.66
2018-10-16T08:48:15.732Z,98.66
2018-10-16T08:49:15.711Z,99.23
2018-10-16T08:50:15.688Z,99.43
2018-10-16T08:51:15.665Z,98.90
2018-10-16T08:52:15.644Z,98.66
2018-10-16T08:53:15.624Z,99.38
2018-10-16T08:54:19.355Z,99.57
2018-10-16T08:55:15.578Z,98.42
2018-10-16T08:56:15.555Z,98.99
2018-10-16T08:57:15.535Z,99.28
2018-10-16T08:58:15.513Z,98.71
2018-10-16T08:59:15.490Z,99.57
2018-10-16T09:00:15.467Z,99.48
2018-10-16T09:01:15.446Z,98.99
2018-10-16T09:02:15.424Z,98.71
2018-10-16T09:03:15.403Z,98.99
2018-10-16T09:04:15.380Z,98.33
2018-10-16T09:05:15.357Z,98.71
2018-10-16T09:06:15.341Z,98.80
2018-10-16T09:07:15.314Z,98.38
2018-10-16T09:08:15.293Z,98.85
2018-10-16T09:09:15.272Z,98.99
2018-10-16T09:10:15.249Z,99.19
2018-10-16T09:11:18.232Z,98.95
2018-10-16T09:12:15.205Z,97.90
2018-10-16T09:13:15.235Z,98.47
2018-10-16T09:14:15.164Z,97.90
2018-10-16T09:15:15.139Z,98.57
2018-10-16T09:16:15.121Z,98.28
2018-10-16T09:17:16.597Z,98.47
2018-10-16T09:18:15.076Z,98.47
2018-10-16T09:19:15.052Z,98.66
2018-10-16T09:20:15.031Z,98.18
2018-10-16T09:21:15.010Z,97.80
2018-10-16T09:22:14.987Z,97.71
2018-10-16T09:23:14.964Z,98.38
2018-10-16T09:24:14.947Z,97.90
2018-10-16T09:25:15.032Z,97.90
2018-10-16T09:26:14.899Z,98.38
2018-10-16T09:27:14.878Z,97.90
2018-10-16T09:28:14.855Z,96.99
2018-10-16T09:29:14.835Z,97.18
2018-10-16T09:30:14.813Z,97.56
2018-10-16T09:31:14.792Z,96.80
2018-10-16T09:32:14.771Z,96.99
2018-10-16T09:33:14.748Z,96.99
2018-10-16T09:34:14.726Z,97.18
2018-10-16T09:35:14.704Z,97.18
2018-10-16T09:36:14.685Z,96.66
2018-10-16T09:37:14.661Z,96.56
2018-10-16T09:38:14.640Z,96.75
2018-10-16T09:39:14.617Z,95.98
2018-10-16T09:40:14.596Z,95.70
2018-10-16T09:41:14.575Z,95.27
2018-10-16T09:42:14.554Z,95.36
2018-10-16T09:43:14.532Z,95.75
2018-10-16T09:44:14.512Z,95.27
2018-10-16T09:45:14.490Z,94.69
2018-10-16T09:46:14.468Z,94.31
2018-10-16T09:47:14.448Z,94.60
2018-10-16T09:48:14.430Z,94.17
2018-10-16T09:49:14.406Z,94.55
2018-10-16T09:50:14.384Z,93.69
2018-10-16T09:51:14.362Z,93.69
2018-10-16T09:52:14.341Z,93.40
2018-10-16T09:53:14.320Z,94.17
2018-10-16T09:54:14.300Z,93.69
2018-10-16T09:55:18.784Z,93.26
2018-10-16T09:56:14.272Z,93.59
2018-10-16T09:57:14.236Z,93.69
2018-10-16T09:58:14.216Z,93.30
2018-10-16T09:59:14.193Z,94.17
2018-10-16T10:00:14.172Z,94.12
2018-10-16T10:01:14.252Z,93.35
2018-10-16T10:02:14.131Z,93.44
2018-10-16T10:03:14.110Z,93.63
2018-10-16T10:04:14.089Z,93.35
2018-10-16T10:05:14.068Z,93.54
2018-10-16T10:06:14.047Z,93.54
2018-10-16T10:07:14.026Z,93.93
2018-10-16T10:08:14.005Z,94.40
2018-10-16T10:09:13.984Z,92.68
2018-10-16T10:10:13.966Z,92.68
2018-10-16T10:11:13.943Z,93.44
2018-10-16T10:12:14.672Z,93.73
2018-10-16T10:13:13.901Z,93.63
2018-10-16T10:14:13.883Z,94.21
2018-10-16T10:15:13.862Z,93.97
2018-10-16T10:16:13.840Z,93.68
2018-10-16T10:17:13.820Z,93.01
2018-10-16T10:18:13.798Z,92.72
2018-10-16T10:19:13.778Z,92.54
2018-10-16T10:20:13.758Z,92.91
2018-10-16T10:21:13.738Z,92.01
2018-10-16T10:22:13.717Z,91.86
2018-10-16T10:23:14.468Z,92.34
2018-10-16T10:24:13.675Z,92.34
2018-10-16T10:25:13.720Z,92.15
2018-10-16T10:26:13.634Z,92.54
2018-10-16T10:27:13.615Z,91.77
2018-10-16T10:28:13.596Z,92.44
2018-10-16T10:29:13.573Z,91.38
2018-10-16T10:30:13.553Z,91.96
2018-10-16T10:31:13.533Z,91.57
2018-10-16T10:32:13.512Z,90.61
2018-10-16T10:33:13.491Z,89.56
2018-10-16T10:34:13.470Z,90.04
2018-10-16T10:35:13.453Z,90.56
2018-10-16T10:36:13.435Z,90.42
2018-10-16T10:37:13.411Z,90.42
2018-10-16T10:38:13.396Z,90.08
2018-10-16T10:39:13.370Z,90.47
2018-10-16T10:40:13.349Z,90.18
2018-10-16T10:41:13.329Z,90.66
2018-10-16T10:42:13.379Z,90.75
2018-10-16T10:43:13.288Z,91.05
2018-10-16T10:44:13.293Z,90.75
2018-10-16T10:45:13.248Z,89.89
2018-10-16T10:46:13.228Z,89.70
2018-10-16T10:47:13.206Z,90.75
2018-10-16T10:48:13.187Z,90.66
2018-10-16T10:49:13.167Z,91.47
2018-10-16T10:50:15.477Z,90.47
2018-10-16T10:51:13.383Z,90.80
2018-10-16T10:52:13.106Z,90.03
2018-10-16T10:53:13.087Z,89.51
2018-10-16T10:54:13.069Z,89.84
2018-10-16T10:55:13.045Z,90.42
2018-10-16T10:56:13.026Z,90.52
2018-10-16T10:57:13.114Z,89.65
2018-10-16T10:58:12.986Z,89.46
2018-10-16T10:59:12.965Z,89.65
2018-10-16T11:00:12.945Z,90.03
2018-10-16T11:01:12.926Z,90.52
2018-10-16T11:02:12.905Z,90.03
2018-10-16T11:03:13.039Z,89.75
2018-10-16T11:04:12.867Z,89.75
2018-10-16T11:05:12.847Z,89.94
2018-10-16T11:06:12.826Z,89.94
2018-10-16T11:07:12.805Z,90.03
2018-10-16T11:08:12.786Z,89.65
2018-10-16T11:09:12.865Z,90.03
2018-10-16T11:10:12.752Z,90.03
2018-10-16T11:11:12.727Z,89.36
2018-10-16T11:12:12.707Z,90.13
2018-10-16T11:13:12.689Z,89.36
2018-10-16T11:14:12.668Z,89.98
2018-10-16T11:15:12.778Z,90.46
2018-10-16T11:16:12.629Z,89.02
2018-10-16T11:17:12.610Z,89.31
2018-10-16T11:18:12.589Z,90.08
2018-10-16T11:19:12.576Z,89.22
2018-10-16T11:20:12.550Z,89.50
2018-10-16T11:21:12.623Z,88.73
2018-10-16T11:22:12.511Z,88.16
2018-10-16T11:23:12.490Z,88.73
2018-10-16T11:24:12.478Z,88.64
2018-10-16T11:25:12.499Z,88.45
2018-10-16T11:26:12.432Z,88.93
2018-10-16T11:27:12.471Z,88.01
2018-10-16T11:28:12.393Z,87.15
2018-10-16T11:29:12.372Z,87.62
2018-10-16T11:30:12.393Z,87.72
2018-10-16T11:31:12.335Z,88.10
2018-10-16T11:32:12.316Z,86.38
2018-10-16T11:33:12.379Z,86.09
2018-10-16T11:34:12.276Z,86.09
2018-10-16T11:35:12.257Z,87.34
2018-10-16T11:36:12.237Z,86.18
2018-10-16T11:37:12.219Z,84.84
2018-10-16T11:38:12.199Z,84.84
2018-10-16T11:39:12.244Z,86.47
2018-10-16T11:40:12.162Z,85.13
2018-10-16T11:41:12.140Z,84.74
2018-10-16T11:42:12.121Z,85.32
2018-10-16T11:43:12.100Z,85.71
2018-10-16T11:44:12.087Z,85.46
2018-10-16T11:45:12.253Z,84.98
2018-10-16T11:46:12.043Z,84.59
2018-10-16T11:47:12.024Z,84.40
2018-10-16T11:48:12.004Z,84.88
2018-10-16T11:49:11.987Z,84.40
2018-10-16T11:50:12.081Z,85.17
2018-10-16T11:51:11.947Z,84.59
2018-10-16T11:52:11.977Z,84.69
2018-10-16T11:53:11.913Z,84.45
2018-10-16T11:54:11.889Z,85.46
2018-10-16T11:55:11.872Z,85.94
2018-10-16T11:56:11.954Z,86.04
2018-10-16T11:57:11.835Z,85.46
2018-10-16T11:58:11.812Z,84.88
2018-10-16T11:59:11.900Z,84.59
2018-10-16T12:00:11.779Z,82.67
2018-10-16T12:01:11.755Z,82.57
2018-10-16T12:02:11.808Z,83.92
2018-10-16T12:03:11.720Z,82.96
2018-10-16T12:04:11.704Z,80.98
2018-10-16T12:05:11.680Z,80.60
2018-10-16T12:06:11.666Z,79.15
2018-10-16T12:07:11.742Z,78.09
2018-10-16T12:08:11.708Z,78.00
2018-10-16T12:09:11.603Z,78.09
2018-10-16T12:10:11.585Z,78.00
2018-10-16T12:11:11.637Z,77.94
2018-10-16T12:12:11.547Z,77.26
2018-10-16T12:13:11.632Z,77.36
2018-10-16T12:14:11.557Z,76.78
2018-10-16T12:15:11.490Z,76.98
2018-10-16T12:16:11.470Z,77.11
2018-10-16T12:17:11.451Z,77.69
2018-10-16T12:18:11.433Z,77.40
2018-10-16T12:19:11.550Z,76.44
2018-10-16T12:20:11.395Z,74.90
2018-10-16T12:21:11.600Z,75.48
2018-10-16T12:22:11.357Z,74.99
2018-10-16T12:23:11.339Z,74.90
2018-10-16T12:24:11.409Z,73.74
2018-10-16T12:25:11.419Z,73.84
2018-10-16T12:26:11.287Z,74.13
2018-10-16T12:27:11.343Z,73.42
2018-10-16T12:28:11.247Z,73.42
2018-10-16T12:29:11.227Z,73.03
2018-10-16T12:30:11.209Z,73.90
2018-10-16T12:31:11.255Z,73.90
2018-10-16T12:32:11.187Z,75.44
2018-10-16T12:33:11.293Z,74.13
2018-10-16T12:34:11.135Z,74.80
2018-10-16T12:35:11.116Z,74.80
2018-10-16T12:36:11.099Z,73.90
2018-10-16T12:37:11.122Z,73.80
2018-10-16T12:38:11.060Z,74.67
2018-10-16T12:39:11.091Z,74.67
2018-10-16T12:40:11.093Z,74.38
2018-10-16T12:41:11.098Z,74.19
2018-10-16T12:42:11.035Z,74.76
2018-10-16T12:43:11.000Z,76.01
2018-10-16T12:44:10.949Z,75.05
2018-10-16T12:45:10.998Z,74.38
2018-10-16T12:46:10.935Z,74.13
2018-10-16T12:47:11.016Z,74.41
2018-10-16T12:48:10.919Z,74.61
2018-10-16T12:49:10.854Z,73.94
2018-10-16T12:50:10.895Z,73.94
2018-10-16T12:51:10.940Z,74.71
2018-10-16T12:52:10.801Z,73.94
2018-10-16T12:53:11.573Z,74.03